createdAt,value
2018-06-03T00:01:05.795Z,23.37
2018-06-03T00:05:08.287Z,23.32
2018-06-03T00:09:10.753Z,23.28
2018-06-03T00:13:13.283Z,23.27
2018-06-03T00:17:15.772Z,23.30
2018-06-03T00:21:30.813Z,23.31
2018-06-03T00:25:33.285Z,23.31
2018-06-03T00:29:35.782Z,23.28
2018-06-03T00:33:38.245Z,23.26
2018-06-03T00:37:40.743Z,23.25
2018-06-03T00:41:43.198Z,23.25
2018-06-03T00:45:45.675Z,23.22
2018-06-03T00:49:48.170Z,23.19
2018-06-03T00:53:50.648Z,23.17
2018-06-03T00:57:53.133Z,23.17
2018-06-03T01:01:55.595Z,23.18
2018-06-03T01:05:58.087Z,23.18
2018-06-03T01:10:00.569Z,23.17
2018-06-03T01:14:03.036Z,23.16
2018-06-03T01:18:05.533Z,23.12
2018-06-03T01:22:08.022Z,23.11
2018-06-03T01:26:10.512Z,23.11
2018-06-03T01:30:12.992Z,23.11
2018-06-03T01:34:15.500Z,23.11
2018-06-03T01:38:17.956Z,23.09
2018-06-03T01:42:20.430Z,23.04
2018-06-03T01:46:22.943Z,22.97
2018-06-03T01:50:25.384Z,22.95
2018-06-03T01:54:27.863Z,22.94
2018-06-03T01:58:30.351Z,22.93
2018-06-03T02:02:32.846Z,22.91
2018-06-03T02:06:35.303Z,22.87
2018-06-03T02:10:37.782Z,22.83
2018-06-03T02:14:40.270Z,22.79
2018-06-03T02:18:42.757Z,22.76
2018-06-03T02:22:45.203Z,22.74
2018-06-03T02:26:47.683Z,22.73
2018-06-03T02:30:50.142Z,22.73
2018-06-03T02:34:52.630Z,22.73
2018-06-03T02:38:55.108Z,22.70
2018-06-03T02:42:57.571Z,22.67
2018-06-03T02:47:00.081Z,22.61
2018-06-03T02:51:02.568Z,22.54
2018-06-03T02:55:05.017Z,22.48
2018-06-03T02:59:07.511Z,22.43
2018-06-03T03:03:09.991Z,22.41
2018-06-03T03:07:12.471Z,22.37
2018-06-03T03:11:14.964Z,22.32
2018-06-03T03:15:17.446Z,22.32
2018-06-03T03:19:19.945Z,22.28
2018-06-03T03:23:22.423Z,22.24
2018-06-03T03:27:24.903Z,22.22
2018-06-03T03:31:27.409Z,22.20
2018-06-03T03:35:29.866Z,22.15
2018-06-03T03:40:16.591Z,21.87
2018-06-03T03:44:20.036Z,21.81
2018-06-03T03:48:23.467Z,21.77
2018-06-03T03:52:26.875Z,21.76
2018-06-03T03:56:30.320Z,21.75
2018-06-03T04:00:33.750Z,21.75
2018-06-03T04:04:37.135Z,21.78
2018-06-03T04:08:40.556Z,21.79
2018-06-03T04:12:43.992Z,21.80
2018-06-03T04:16:47.454Z,21.81
2018-06-03T04:20:50.893Z,21.81
2018-06-03T04:24:54.292Z,21.84
2018-06-03T04:28:57.741Z,21.85
2018-06-03T04:33:01.202Z,21.89
2018-06-03T04:37:04.635Z,21.92
2018-06-03T04:41:08.072Z,21.95
2018-06-03T04:45:11.517Z,22.01
2018-06-03T04:49:14.972Z,22.09
2018-06-03T04:53:18.450Z,22.15
2018-06-03T04:57:21.901Z,22.21
2018-06-03T05:01:25.368Z,22.29
2018-06-03T05:05:28.855Z,22.38
2018-06-03T05:09:32.286Z,22.50
2018-06-03T05:13:35.751Z,22.62
2018-06-03T05:17:39.182Z,22.75
2018-06-03T05:21:42.636Z,22.85
2018-06-03T05:25:46.131Z,22.92
2018-06-03T05:29:49.609Z,23.00
2018-06-03T05:33:53.036Z,23.16
2018-06-03T05:37:56.524Z,23.33
2018-06-03T05:41:59.947Z,23.45
2018-06-03T05:46:03.464Z,23.55
2018-06-03T05:50:06.943Z,23.66
2018-06-03T05:54:10.458Z,23.75
2018-06-03T05:58:13.922Z,23.83
2018-06-03T06:02:17.358Z,23.91
2018-06-03T06:06:20.796Z,23.96
2018-06-03T06:10:24.256Z,24.02
2018-06-03T06:14:27.715Z,24.09
2018-06-03T06:18:31.169Z,24.14
2018-06-03T06:22:34.631Z,24.17
2018-06-03T06:26:38.051Z,24.21
2018-06-03T06:30:41.539Z,24.30
2018-06-03T06:34:44.987Z,24.37
2018-06-03T06:38:48.436Z,24.46
2018-06-03T06:42:51.873Z,24.54
2018-06-03T06:46:56.331Z,24.59
2018-06-03T06:50:59.788Z,24.71
2018-06-03T06:55:03.243Z,24.76
2018-06-03T06:59:06.696Z,24.89
2018-06-03T07:03:10.134Z,25.07
2018-06-03T07:07:13.558Z,25.15
2018-06-03T07:11:16.978Z,25.19
2018-06-03T07:15:20.434Z,25.26
2018-06-03T07:19:23.904Z,25.45
2018-06-03T07:23:27.306Z,25.65
2018-06-03T07:27:30.753Z,25.67
2018-06-03T07:31:34.219Z,25.69
2018-06-03T07:35:37.635Z,25.86
2018-06-03T07:39:41.058Z,26.08
2018-06-03T07:43:44.512Z,26.16
2018-06-03T07:47:47.982Z,26.09
2018-06-03T07:51:51.384Z,26.18
2018-06-03T07:55:54.851Z,26.39
2018-06-03T07:59:58.300Z,26.62
2018-06-03T08:04:01.728Z,26.74
2018-06-03T08:08:05.211Z,26.75
2018-06-03T08:12:08.621Z,26.78
2018-06-03T08:16:12.095Z,26.88
2018-06-03T08:20:15.556Z,27.02
2018-06-03T08:24:18.969Z,27.06
2018-06-03T08:28:22.418Z,27.11
2018-06-03T08:32:25.867Z,27.16
2018-06-03T08:36:29.303Z,27.23
2018-06-03T08:40:32.763Z,27.32
2018-06-03T08:44:36.179Z,27.39
2018-06-03T08:48:39.645Z,27.41
2018-06-03T08:52:43.120Z,27.42
2018-06-03T08:56:46.542Z,27.31
2018-06-03T09:00:50.359Z,27.25
2018-06-03T09:04:53.782Z,27.22
2018-06-03T09:08:57.225Z,27.22
2018-06-03T09:13:00.676Z,27.26
2018-06-03T09:17:04.166Z,27.33
2018-06-03T09:21:07.603Z,27.45
2018-06-03T09:25:11.069Z,27.54
2018-06-03T09:29:14.487Z,27.65
2018-06-03T09:33:17.916Z,27.73
2018-06-03T09:37:21.345Z,27.92
2018-06-03T09:41:24.768Z,28.07
2018-06-03T09:45:28.221Z,28.21
2018-06-03T09:49:31.687Z,28.33
2018-06-03T09:53:35.129Z,28.45
2018-06-03T09:57:38.576Z,28.61
2018-06-03T10:01:42.005Z,28.80
2018-06-03T10:05:45.434Z,28.92
2018-06-03T10:09:48.867Z,29.00
2018-06-03T10:13:52.274Z,29.14
2018-06-03T10:17:55.736Z,29.03
2018-06-03T10:21:59.181Z,28.95
2018-06-03T10:26:02.639Z,29.03
2018-06-03T10:30:06.132Z,29.14
2018-06-03T10:34:09.588Z,29.12
2018-06-03T10:38:13.024Z,29.18
2018-06-03T10:42:16.446Z,29.34
2018-06-03T10:46:19.879Z,29.44
2018-06-03T10:50:23.338Z,29.59
2018-06-03T10:54:26.822Z,29.69
2018-06-03T10:58:30.180Z,29.75
2018-06-03T11:02:33.623Z,29.78
2018-06-03T11:06:37.067Z,29.83
2018-06-03T11:10:40.522Z,29.62
2018-06-03T11:14:43.955Z,29.60
2018-06-03T11:18:47.413Z,29.70
2018-06-03T11:22:50.910Z,29.60
2018-06-03T11:26:54.386Z,29.43
2018-06-03T11:30:57.838Z,29.34
2018-06-03T11:35:01.259Z,29.33
2018-06-03T11:39:07.874Z,29.26
2018-06-03T11:43:11.314Z,29.07
2018-06-03T11:47:18.648Z,28.97
2018-06-03T11:51:22.063Z,29.16
2018-06-03T11:55:25.495Z,29.27
2018-06-03T11:59:40.588Z,29.48
2018-06-03T12:03:44.033Z,29.55
2018-06-03T12:07:47.453Z,29.51
2018-06-03T12:11:50.925Z,29.53
2018-06-03T12:15:54.437Z,29.46
2018-06-03T12:19:57.888Z,29.37
2018-06-03T12:24:01.396Z,29.35
2018-06-03T12:28:04.854Z,29.32
2018-06-03T12:32:08.347Z,29.34
2018-06-03T12:36:11.792Z,29.38
2018-06-03T12:40:15.335Z,29.34
2018-06-03T12:44:18.836Z,29.40
2018-06-03T12:48:22.319Z,29.42
2018-06-03T12:52:25.772Z,29.52
2018-06-03T12:56:29.212Z,29.56
2018-06-03T13:00:32.659Z,29.54
2018-06-03T13:04:36.078Z,29.57
2018-06-03T13:08:39.471Z,29.51
2018-06-03T13:12:42.905Z,29.56
2018-06-03T13:16:46.356Z,29.63
2018-06-03T13:20:49.772Z,29.56
2018-06-03T13:24:53.203Z,29.49
2018-06-03T13:28:56.646Z,29.52
2018-06-03T13:33:00.090Z,29.51
2018-06-03T13:37:03.521Z,29.47
2018-06-03T13:41:06.979Z,29.51
2018-06-03T13:45:10.438Z,29.62
2018-06-03T13:49:13.922Z,29.65
2018-06-03T13:53:17.349Z,29.57
2018-06-03T13:57:20.796Z,29.33
2018-06-03T14:01:24.326Z,29.24
2018-06-03T14:05:27.835Z,29.35
2018-06-03T14:09:31.271Z,29.32
2018-06-03T14:13:34.723Z,29.31
2018-06-03T14:17:38.173Z,29.18
2018-06-03T14:21:41.608Z,29.13
2018-06-03T14:25:45.037Z,29.07
2018-06-03T14:29:48.495Z,28.96
2018-06-03T14:33:52.004Z,28.87
2018-06-03T14:37:55.425Z,28.73
2018-06-03T14:41:58.893Z,28.74
2018-06-03T14:46:02.356Z,28.80
2018-06-03T14:50:05.791Z,28.83
2018-06-03T14:54:09.236Z,28.82
2018-06-03T14:58:12.675Z,28.71
2018-06-03T15:02:16.250Z,28.63
2018-06-03T15:06:19.695Z,28.53
2018-06-03T15:10:23.139Z,28.51
2018-06-03T15:14:26.571Z,28.48
2018-06-03T15:18:30.058Z,28.42
2018-06-03T15:22:33.513Z,28.39
2018-06-03T15:26:36.976Z,28.38
2018-06-03T15:30:40.423Z,28.38
2018-06-03T15:34:43.849Z,28.32
2018-06-03T15:38:47.314Z,28.26
2018-06-03T15:42:50.723Z,28.24
2018-06-03T15:46:54.160Z,28.20
2018-06-03T15:50:57.593Z,28.16
2018-06-03T15:55:01.050Z,28.16
2018-06-03T15:59:04.495Z,28.13
2018-06-03T16:03:08.020Z,28.14
2018-06-03T16:07:11.463Z,28.12
2018-06-03T16:11:14.863Z,28.09
2018-06-03T16:15:18.355Z,28.08
2018-06-03T16:19:21.840Z,28.04
2018-06-03T16:23:25.355Z,27.99
2018-06-03T16:27:28.894Z,28.00
2018-06-03T16:31:32.353Z,28.03
2018-06-03T16:35:35.781Z,27.99
2018-06-03T16:39:39.275Z,27.95
2018-06-03T16:43:43.236Z,27.87
2018-06-03T16:47:46.742Z,27.82
2018-06-03T16:51:50.241Z,27.77
2018-06-03T16:55:53.697Z,27.77
2018-06-03T16:59:57.220Z,27.72
2018-06-03T17:04:00.674Z,27.67
2018-06-03T17:08:04.144Z,27.68
2018-06-03T17:12:07.609Z,27.62
2018-06-03T17:16:11.167Z,27.57
2018-06-03T17:20:14.664Z,27.54
2018-06-03T17:24:18.062Z,27.52
2018-06-03T17:28:21.656Z,27.46
2018-06-03T17:32:25.454Z,27.42
2018-06-03T17:36:28.857Z,27.38
2018-06-03T17:40:32.332Z,27.33
2018-06-03T17:44:36.788Z,27.25
2018-06-03T17:48:40.223Z,27.17
2018-06-03T17:52:43.638Z,27.05
2018-06-03T17:56:47.111Z,26.97
2018-06-03T18:00:50.566Z,26.92
2018-06-03T18:04:54.252Z,26.85
2018-06-03T18:08:57.695Z,26.78
2018-06-03T18:13:01.216Z,26.67
2018-06-03T18:17:04.753Z,26.58
2018-06-03T18:21:08.186Z,26.49
2018-06-03T18:25:11.671Z,26.40
2018-06-03T18:29:15.159Z,26.31
2018-06-03T18:33:18.632Z,26.23
2018-06-03T18:37:22.057Z,26.15
2018-06-03T18:41:25.523Z,26.13
2018-06-03T18:45:28.960Z,26.09
2018-06-03T18:49:32.744Z,26.01
2018-06-03T18:53:36.150Z,25.95
2018-06-03T18:57:39.655Z,25.93
2018-06-03T19:01:43.069Z,25.87
2018-06-03T19:05:46.483Z,25.80
2018-06-03T19:09:49.909Z,25.73
2018-06-03T19:13:53.359Z,25.68
2018-06-03T19:17:56.789Z,25.62
2018-06-03T19:22:00.200Z,25.57
2018-06-03T19:26:03.742Z,25.51
2018-06-03T19:30:07.136Z,25.45
2018-06-03T19:34:10.577Z,25.43
2018-06-03T19:38:14.012Z,25.37
2018-06-03T19:42:17.438Z,25.30
2018-06-03T19:46:20.880Z,25.17
2018-06-03T19:50:24.363Z,25.09
2018-06-03T19:54:27.815Z,25.02
2018-06-03T19:58:31.297Z,24.95
2018-06-03T20:02:34.752Z,24.89
2018-06-03T20:06:38.216Z,24.83
2018-06-03T20:10:41.699Z,24.73
2018-06-03T20:14:45.160Z,24.64
2018-06-03T20:18:48.629Z,24.53
2018-06-03T20:22:52.138Z,24.42
2018-06-03T20:26:55.559Z,24.38
2018-06-03T20:30:58.987Z,24.30
2018-06-03T20:35:02.413Z,24.22
2018-06-03T20:39:07.179Z,24.15
2018-06-03T20:43:10.612Z,24.10
2018-06-03T20:47:14.055Z,24.05
2018-06-03T20:51:17.463Z,24.01
2018-06-03T20:55:20.901Z,23.99
2018-06-03T20:59:24.317Z,23.94
2018-06-03T21:03:27.759Z,23.91
2018-06-03T21:07:31.215Z,23.85
2018-06-03T21:11:34.779Z,23.82
2018-06-03T21:15:38.232Z,23.77
2018-06-03T21:19:41.736Z,23.73
2018-06-03T21:23:45.192Z,23.68
2018-06-03T21:27:48.647Z,23.65
2018-06-03T21:31:52.094Z,23.58
2018-06-03T21:35:55.569Z,23.55
2018-06-03T21:39:59.039Z,23.49
2018-06-03T21:44:02.456Z,23.45
2018-06-03T21:48:05.950Z,23.41
2018-06-03T21:52:09.402Z,23.37
2018-06-03T21:56:12.847Z,23.35
2018-06-03T22:00:16.309Z,23.31
2018-06-03T22:04:19.748Z,23.26
2018-06-03T22:08:23.196Z,23.16
2018-06-03T22:12:26.633Z,23.11
2018-06-03T22:16:30.073Z,23.05
2018-06-03T22:20:33.548Z,22.99
2018-06-03T22:24:36.975Z,22.94
2018-06-03T22:28:40.417Z,22.91
2018-06-03T22:32:43.907Z,22.87
2018-06-03T22:36:47.331Z,22.85
2018-06-03T22:40:50.769Z,22.80
2018-06-03T22:44:54.222Z,22.78
2018-06-03T22:48:57.764Z,22.77
2018-06-03T22:53:01.211Z,22.74
2018-06-03T22:58:08.228Z,22.73
2018-06-03T23:02:11.654Z,22.68
2018-06-03T23:06:15.110Z,22.65
2018-06-03T23:10:18.566Z,22.63
2018-06-03T23:14:22.050Z,22.57
2018-06-03T23:18:25.460Z,22.52
2018-06-03T23:22:28.961Z,22.49
2018-06-03T23:26:32.428Z,22.49
2018-06-03T23:30:35.824Z,22.43
2018-06-03T23:34:39.269Z,22.43
2018-06-03T23:38:42.751Z,22.41
2018-06-03T23:42:46.363Z,22.35
2018-06-03T23:46:49.768Z,22.28
2018-06-03T23:50:53.195Z,22.26
2018-06-03T23:54:56.643Z,22.23
2018-06-03T23:59:00.090Z,22.16
